Time;durP1;ratioP1;P1;durP2;ratioP2;P2;SDS_P1;SDS_P2;PMS_P1;PMS_P2;Temp;Humidity;BMP_temperature;BMP_pressure;BME280_temperature;BME280_humidity;BME280_pressure;Samples;Min_cycle;Max_cycle;Signal;HPM_P1;HPM_P2
2020/12/15 00:00:09;;;;;;;63.60;57.92;;;;;;;9.57;48.75;100827.00;4475034;32;33298;-87
2020/12/15 00:02:36;;;;;;;63.78;57.65;;;;;;;9.20;49.38;100832.53;4457049;32;32346;-88
2020/12/15 00:05:04;;;;;;;63.17;57.08;;;;;;;10.26;46.88;100822.78;4457104;32;33363;-87
2020/12/15 00:07:31;;;;;;;63.33;57.28;;;;;;;9.35;49.34;100821.16;4470102;32;33471;-86
2020/12/15 00:09:58;;;;;;;63.80;57.78;;;;;;;10.06;47.37;100817.81;4470499;32;34426;-87
2020/12/15 00:12:25;;;;;;;63.35;57.47;;;;;;;9.39;49.21;100821.97;4470254;32;33825;-87
2020/12/15 00:14:53;;;;;;;63.13;56.95;;;;;;;10.10;47.58;100822.09;4470588;32;34650;-86
2020/12/15 00:17:20;;;;;;;63.72;57.53;;;;;;;9.83;48.49;100820.69;4470447;32;34649;-86
2020/12/15 00:19:49;;;;;;;64.28;58.22;;;;;;;10.29;47.09;100816.66;4470745;32;33205;-86
2020/12/15 00:22:16;;;;;;;66.30;59.88;;;;;;;10.08;47.57;100823.00;4457520;32;34608;-87
2020/12/15 00:24:44;;;;;;;64.93;58.55;;;;;;;10.63;46.28;100816.28;4444472;32;32711;-88
2020/12/15 00:27:11;;;;;;;68.80;61.42;;;;;;;10.05;47.58;100820.44;4470269;32;33937;-88
2020/12/15 00:29:39;;;;;;;62.60;56.88;;;;;;;9.96;47.71;100804.06;4469906;32;32932;-87
2020/12/15 00:32:10;;;;;;;66.03;59.53;;;;;;;10.73;45.70;100810.06;4470373;32;33441;-87
2020/12/15 00:34:38;;;;;;;64.95;58.58;;;;;;;10.88;45.19;100805.50;4470389;32;34235;-87
2020/12/15 00:37:08;;;;;;;65.93;59.53;;;;;;;11.22;44.38;100811.03;4455948;32;33617;-85
2020/12/15 00:39:36;;;;;;;66.22;59.85;;;;;;;10.20;47.02;100808.09;4469897;32;32520;-86
2020/12/15 00:42:04;;;;;;;64.70;58.47;;;;;;;10.84;45.35;100804.69;4484374;32;34415;-86
2020/12/15 00:44:35;;;;;;;64.82;58.65;;;;;;;9.88;47.86;100815.41;4470567;32;33710;-87
2020/12/15 00:47:03;;;;;;;66.40;59.97;;;;;;;10.14;47.11;100807.31;4484239;32;33497;-86
2020/12/15 00:49:30;;;;;;;67.80;60.42;;;;;;;10.92;45.52;100804.56;4457313;32;33029;-87
2020/12/15 00:51:58;;;;;;;66.43;59.88;;;;;;;10.19;47.06;100803.75;4470144;32;33961;-88
2020/12/15 00:54:25;;;;;;;66.25;59.55;;;;;;;10.23;47.07;100807.19;4469937;32;34709;-86
2020/12/15 00:56:52;;;;;;;67.87;61.00;;;;;;;10.00;48.13;100800.53;4469808;32;33746;-87
2020/12/15 00:59:21;;;;;;;67.35;60.70;;;;;;;10.03;48.17;100815.25;4470515;32;33909;-87
2020/12/15 01:01:48;;;;;;;67.62;60.83;;;;;;;9.70;48.88;100806.94;4474424;32;33687;-85
2020/12/15 01:04:16;;;;;;;66.28;59.55;;;;;;;9.99;48.36;100798.81;4479622;32;34252;-85
2020/12/15 01:06:48;;;;;;;65.90;59.58;;;;;;;9.79;48.69;100804.22;4489740;32;34097;-86
2020/12/15 01:09:17;;;;;;;67.50;60.72;;;;;;;11.01;45.55;100800.06;4483766;32;33123;-86
2020/12/15 01:11:45;;;;;;;67.10;60.50;;;;;;;9.89;48.29;100804.97;4469495;32;33436;-85
2020/12/15 01:14:13;;;;;;;66.20;59.60;;;;;;;9.63;49.17;100800.94;4484105;32;34000;-87
2020/12/15 01:16:41;;;;;;;67.72;60.58;;;;;;;9.75;48.98;100802.53;4469717;32;34022;-87
2020/12/15 01:19:09;;;;;;;64.72;58.75;;;;;;;10.16;47.56;100801.22;4469148;32;33008;-86
2020/12/15 01:21:37;;;;;;;63.25;57.40;;;;;;;11.39;44.42;100794.22;4469312;32;33648;-87
2020/12/15 01:24:05;;;;;;;63.15;57.65;;;;;;;10.00;47.87;100797.94;4456495;32;34748;-85
2020/12/15 01:26:33;;;;;;;63.45;57.47;;;;;;;9.84;48.22;100796.37;4469590;32;33614;-87
2020/12/15 01:29:00;;;;;;;63.85;57.83;;;;;;;10.62;46.17;100798.91;4483524;32;33441;-87
2020/12/15 01:31:29;;;;;;;62.70;56.95;;;;;;;10.37;46.55;100794.06;4469407;32;33991;-86
2020/12/15 01:33:57;;;;;;;63.60;57.80;;;;;;;9.76;47.83;100795.59;4469455;32;34712;-86
2020/12/15 01:36:32;;;;;;;64.68;58.47;;;;;;;8.71;50.90;100799.06;4456596;32;33871;-86
2020/12/15 01:39:00;;;;;;;63.20;57.25;;;;;;;9.14;50.08;100796.19;4469591;32;34375;-87
2020/12/15 01:41:30;;;;;;;65.18;58.78;;;;;;;10.18;47.13;100789.03;4469803;32;34536;-87
2020/12/15 01:44:00;;;;;;;63.03;56.92;;;;;;;10.15;47.53;100788.22;4469149;32;34061;-87
2020/12/15 01:46:30;;;;;;;62.85;56.80;;;;;;;9.34;49.85;100804.66;4443964;32;33696;-86
2020/12/15 01:48:58;;;;;;;63.70;57.45;;;;;;;9.33;50.25;100810.75;4471025;32;33164;-87
2020/12/15 01:51:27;;;;;;;63.00;56.97;;;;;;;10.38;47.12;100810.53;4471352;32;33230;-87
2020/12/15 01:54:00;;;;;;;64.68;58.47;;;;;;;10.10;47.64;100810.84;4471564;32;33855;-87
2020/12/15 01:56:29;;;;;;;62.75;56.95;;;;;;;10.20;47.49;100802.87;4458248;32;34489;-86
2020/12/15 01:59:02;;;;;;;63.08;57.08;;;;;;;10.49;46.79;100811.22;4458995;32;34283;-87
2020/12/15 02:01:29;;;;;;;62.35;56.78;;;;;;;10.52;46.79;100803.41;4458771;32;34383;-87
2020/12/15 02:03:57;;;;;;;62.58;57.05;;;;;;;9.74;48.91;100797.34;4471201;32;34677;-87
2020/12/15 02:06:24;;;;;;;64.85;58.65;;;;;;;9.60;49.21;100795.75;4471480;32;34196;-87
2020/12/15 02:08:54;;;;;;;62.90;56.88;;;;;;;9.76;48.56;100798.19;4471784;32;34466;-87
2020/12/15 02:11:22;;;;;;;63.78;57.88;;;;;;;10.41;46.77;100793.13;4471864;32;33125;-87
2020/12/15 02:13:49;;;;;;;62.90;57.00;;;;;;;10.32;47.00;100794.06;4471271;32;33562;-87
2020/12/15 02:16:18;;;;;;;60.03;55.03;;;;;;;10.73;45.72;100788.31;4458670;32;34623;-87
2020/12/15 02:18:46;;;;;;;60.47;55.15;;;;;;;9.14;49.49;100797.03;4471353;32;33134;-86
2020/12/15 02:21:14;;;;;;;61.13;55.78;;;;;;;8.99;50.05;100791.97;4470964;32;33858;-87
2020/12/15 02:23:42;;;;;;;61.10;55.53;;;;;;;9.57;48.35;100782.75;4485277;32;33941;-86
2020/12/15 02:26:10;;;;;;;59.85;54.63;;;;;;;10.41;46.44;100784.44;4471421;32;33736;-86
2020/12/15 02:28:38;;;;;;;61.67;56.08;;;;;;;9.95;47.04;100791.91;4458225;32;32693;-87
2020/12/15 02:31:06;;;;;;;63.30;57.42;;;;;;;10.67;45.35;100794.50;4484818;32;35038;-85
2020/12/15 02:33:35;;;;;;;62.25;56.05;;;;;;;9.32;48.33;100803.81;4458356;32;32636;-86
2020/12/15 02:36:03;;;;;;;64.03;58.22;;;;;;;10.01;46.89;100793.56;4470522;32;33519;-86
2020/12/15 02:38:30;;;;;;;62.30;56.75;;;;;;;8.99;49.71;100792.81;4471008;32;32999;-87
2020/12/15 02:40:58;;;;;;;66.72;60.78;;;;;;;8.08;51.75;100784.66;4445062;32;33419;-87
2020/12/15 02:43:29;;;;;;;63.70;57.97;;;;;;;7.43;53.57;100783.09;4457850;32;32738;-87
2020/12/15 02:45:56;;;;;;;65.57;59.80;;;;;;;8.24;51.29;100788.03;4485185;32;33528;-87
2020/12/15 02:48:24;;;;;;;66.65;60.42;;;;;;;7.87;52.71;100796.84;4470892;32;33374;-85
2020/12/15 02:50:53;;;;;;;66.20;59.85;;;;;;;8.56;50.43;100795.69;4471276;32;33700;-86
2020/12/15 02:53:21;;;;;;;65.68;59.47;;;;;;;9.24;48.49;100799.56;4471095;32;34897;-86
2020/12/15 02:55:50;;;;;;;64.43;58.50;;;;;;;9.21;48.27;100810.84;4471306;32;33773;-87
2020/12/15 02:58:17;;;;;;;65.55;59.22;;;;;;;8.44;50.34;100801.81;4470495;32;31438;-86
2020/12/15 03:00:46;;;;;;;64.57;58.67;;;;;;;9.14;48.86;100791.81;4470123;32;33873;-87
2020/12/15 03:03:13;;;;;;;64.90;58.60;;;;;;;10.12;46.03;100789.09;4470634;32;34473;-86
2020/12/15 03:05:42;;;;;;;65.68;59.38;;;;;;;10.02;46.76;100800.50;4470705;32;33842;-87
2020/12/15 03:08:09;;;;;;;67.40;60.80;;;;;;;10.02;46.64;100798.78;4470647;32;33265;-86
2020/12/15 03:10:37;;;;;;;64.78;58.67;;;;;;;9.50;47.90;100799.31;4457244;32;32711;-87
2020/12/15 03:13:04;;;;;;;63.92;57.70;;;;;;;9.06;48.80;100804.03;4457961;32;33921;-86
2020/12/15 03:15:32;;;;;;;64.97;59.08;;;;;;;9.50;48.14;100794.13;4457516;32;33821;-86
2020/12/15 03:17:59;;;;;;;66.10;59.60;;;;;;;9.47;48.09;100791.56;4457802;32;33323;-86
2020/12/15 03:20:27;;;;;;;64.05;58.20;;;;;;;9.42;48.25;100789.00;4470302;32;34111;-86
2020/12/15 03:22:55;;;;;;;63.00;57.70;;;;;;;9.65;47.77;100793.09;4463423;32;33626;-85
2020/12/15 03:25:23;;;;;;;66.72;60.30;;;;;;;9.80;47.45;100797.31;4479406;32;34844;-86
2020/12/15 03:27:53;;;;;;;63.55;57.75;;;;;;;9.81;47.18;100796.41;4474734;32;34010;-87
2020/12/15 03:30:21;;;;;;;62.25;56.78;;;;;;;9.56;48.01;100796.69;4484420;32;34634;-87
2020/12/15 03:32:49;;;;;;;62.67;57.38;;;;;;;9.77;47.42;100805.12;4470556;32;33841;-87
2020/12/15 03:35:16;;;;;;;64.70;58.33;;;;;;;10.17;46.38;100807.25;4469805;32;33853;-87
2020/12/15 03:37:43;;;;;;;63.47;57.72;;;;;;;10.88;44.65;100810.72;4469697;32;32154;-88
2020/12/15 03:40:11;;;;;;;62.75;57.15;;;;;;;9.97;46.69;100816.19;4470202;32;33521;-86
2020/12/15 03:42:42;;;;;;;60.72;55.58;;;;;;;9.92;46.81;100818.00;4469937;32;32524;-87
2020/12/15 03:45:09;;;;;;;61.42;56.05;;;;;;;10.74;44.68;100816.97;4470127;32;33595;-87
2020/12/15 03:47:37;;;;;;;65.65;59.63;;;;;;;10.51;45.22;100818.16;4457181;32;34501;-87
2020/12/15 03:50:05;;;;;;;63.25;57.70;;;;;;;10.46;45.24;100806.06;4457519;32;34478;-87
2020/12/15 03:52:32;;;;;;;61.72;56.65;;;;;;;10.28;45.62;100804.56;4470574;32;34977;-87
2020/12/15 03:55:01;;;;;;;60.17;54.95;;;;;;;10.47;45.40;100803.44;4457378;32;33079;-87
2020/12/15 03:57:29;;;;;;;61.45;56.05;;;;;;;10.66;44.33;100811.00;4470395;32;33562;-86
2020/12/15 03:59:57;;;;;;;62.13;56.78;;;;;;;9.96;46.22;100819.66;4457904;32;33550;-86
2020/12/15 04:02:24;;;;;;;59.75;54.80;;;;;;;9.27;47.76;100817.75;4457709;32;33686;-87
2020/12/15 04:04:52;;;;;;;60.03;54.95;;;;;;;8.59;50.10;100826.87;4457192;32;33312;-86
2020/12/15 04:07:19;;;;;;;61.22;55.92;;;;;;;9.47;48.02;100820.19;4470115;32;33114;-87
2020/12/15 04:09:47;;;;;;;60.30;55.12;;;;;;;8.30;51.24;100838.22;4457009;32;31949;-86
2020/12/15 04:12:14;;;;;;;60.38;55.17;;;;;;;8.48;50.45;100841.63;4484491;32;33905;-86
2020/12/15 04:14:44;;;;;;;59.53;54.55;;;;;;;9.29;48.81;100835.06;4457613;32;32250;-86
2020/12/15 04:17:11;;;;;;;60.42;54.67;;;;;;;10.08;46.70;100826.47;4457367;32;32934;-86
2020/12/15 04:19:40;;;;;;;60.67;55.55;;;;;;;9.33;47.90;100828.97;4470830;32;34126;-86
2020/12/15 04:22:07;;;;;;;58.58;53.75;;;;;;;9.92;46.59;100828.41;4457368;32;32797;-87
2020/12/15 04:24:34;;;;;;;57.58;52.70;;;;;;;10.83;44.64;100821.19;4484688;32;34035;-86
2020/12/15 04:27:04;;;;;;;58.97;53.78;;;;;;;9.83;47.01;100825.91;4470126;32;32796;-87
2020/12/15 04:29:32;;;;;;;59.25;54.03;;;;;;;10.48;45.32;100817.34;4470137;32;32540;-86
2020/12/15 04:31:59;;;;;;;57.55;52.88;;;;;;;9.98;46.43;100824.84;4457343;32;33483;-88
2020/12/15 04:34:27;;;;;;;57.30;52.83;;;;;;;10.13;46.09;100816.00;4499315;31;34104;-86
2020/12/15 04:36:56;;;;;;;57.62;53.13;;;;;;;10.51;45.28;100820.75;4470091;32;168577;-86
2020/12/15 04:39:25;;;;;;;57.03;52.45;;;;;;;10.14;46.29;100815.97;4469832;32;35338;-86
2020/12/15 04:41:52;;;;;;;57.83;53.47;;;;;;;10.34;45.61;100814.88;4457164;32;34792;-87
2020/12/15 04:44:21;;;;;;;58.28;53.75;;;;;;;10.62;44.78;100819.75;4470476;32;33645;-87
2020/12/15 04:47:06;;;;;;;58.28;53.42;;;;;;;10.46;45.13;100819.97;4444300;32;32991;-87
2020/12/15 04:49:43;;;;;;;56.75;52.35;;;;;;;11.02;43.87;100825.25;4470221;32;33661;-87
2020/12/15 04:52:10;;;;;;;57.10;52.58;;;;;;;10.00;46.43;100836.13;4469665;32;33695;-86
2020/12/15 04:54:38;;;;;;;59.10;54.28;;;;;;;10.81;44.46;100835.97;4457364;32;33419;-86
2020/12/15 04:57:05;;;;;;;57.53;53.13;;;;;;;10.91;43.95;100837.59;4469918;32;33412;-87
2020/12/15 04:59:34;;;;;;;57.08;52.67;;;;;;;11.18;43.66;100835.44;4469644;32;33803;-87
2020/12/15 05:02:03;;;;;;;57.25;53.03;;;;;;;11.73;42.17;100830.19;4469665;32;33348;-88
2020/12/15 05:04:41;;;;;;;56.70;52.53;;;;;;;11.55;42.37;100840.03;4470172;32;34674;-88
2020/12/15 05:07:11;;;;;;;58.63;53.78;;;;;;;11.22;43.49;100831.91;4431281;32;32903;-86
2020/12/15 05:09:45;;;;;;;58.25;53.28;;;;;;;11.11;43.78;100831.22;4458068;32;33658;-86
2020/12/15 05:12:13;;;;;;;58.75;54.33;;;;;;;11.14;43.56;100845.06;4469934;32;33778;-87
2020/12/15 05:14:49;;;;;;;59.58;54.42;;;;;;;11.77;42.00;100832.69;4469799;32;34569;-86
2020/12/15 05:17:32;;;;;;;58.33;53.78;;;;;;;10.41;45.31;100844.34;4443492;32;32097;-87
2020/12/15 05:19:59;;;;;;;58.65;53.95;;;;;;;10.95;44.08;100849.69;4469164;32;32979;-86
2020/12/15 05:22:45;;;;;;;58.97;54.28;;;;;;;10.44;45.51;100850.37;4469854;32;34030;-87
2020/12/15 05:25:30;;;;;;;58.97;53.85;;;;;;;10.34;45.76;100841.81;4458818;32;33424;-87
2020/12/15 05:28:00;;;;;;;59.80;54.85;;;;;;;10.50;45.57;100852.94;4471719;32;33419;-87
2020/12/15 05:30:30;;;;;;;58.38;53.50;;;;;;;10.38;45.61;100842.62;4458085;32;34000;-86
2020/12/15 05:32:59;;;;;;;57.25;52.55;;;;;;;10.40;45.53;100843.50;4472253;32;33658;-86
2020/12/15 05:35:28;;;;;;;60.00;55.03;;;;;;;10.13;46.07;100847.25;4445146;32;32931;-87
2020/12/15 05:37:57;;;;;;;61.85;56.65;;;;;;;10.13;46.22;100855.06;4445705;32;32847;-87
2020/12/15 05:40:25;;;;;;;60.00;54.92;;;;;;;10.51;45.42;100848.56;4459233;32;34658;-87
2020/12/15 05:42:57;;;;;;;58.72;53.83;;;;;;;10.47;45.34;100849.50;4458967;32;34043;-86
2020/12/15 05:45:26;;;;;;;59.00;54.33;;;;;;;10.11;46.27;100855.09;4465418;32;34140;-86
2020/12/15 05:48:01;;;;;;;57.40;52.90;;;;;;;10.73;44.77;100851.75;4469113;32;33270;-86
2020/12/15 05:50:30;;;;;;;58.58;53.85;;;;;;;10.50;45.11;100847.72;4475721;32;32352;-86
2020/12/15 05:53:24;;;;;;;60.22;54.95;;;;;;;9.40;48.31;100861.00;4458549;32;33650;-86
2020/12/15 05:55:51;;;;;;;58.08;53.40;;;;;;;9.92;47.38;100851.81;4484804;32;34948;-86
2020/12/15 05:58:18;;;;;;;58.85;54.08;;;;;;;10.43;46.10;100846.06;4485312;32;34232;-86
2020/12/15 06:00:45;;;;;;;60.00;54.75;;;;;;;10.26;46.29;100854.03;4471163;32;33967;-87
2020/12/15 06:03:13;;;;;;;59.67;54.13;;;;;;;10.13;46.54;100863.75;4471817;32;33670;-86
2020/12/15 06:05:40;;;;;;;58.40;53.80;;;;;;;10.50;45.37;100858.13;4471189;32;33912;-87
2020/12/15 06:08:07;;;;;;;59.60;54.80;;;;;;;11.06;44.18;100852.12;4458390;32;33464;-86
2020/12/15 06:10:35;;;;;;;58.22;53.30;;;;;;;11.02;44.05;100860.87;4471056;32;32661;-87
2020/12/15 06:13:03;;;;;;;59.22;54.00;;;;;;;11.09;43.88;100862.53;4458408;32;33651;-87
2020/12/15 06:15:31;;;;;;;57.17;52.60;;;;;;;10.98;43.84;100861.81;4470986;32;34025;-87
2020/12/15 06:18:02;;;;;;;58.47;54.00;;;;;;;10.28;45.97;100870.53;4458077;32;33146;-86
2020/12/15 06:20:35;;;;;;;55.90;51.67;;;;;;;10.97;44.18;100868.78;4457917;32;32904;-87
2020/12/15 06:23:06;;;;;;;57.35;52.85;;;;;;;10.09;45.91;100876.81;4485496;32;33530;-85
2020/12/15 06:25:34;;;;;;;57.53;53.03;;;;;;;11.20;43.57;100880.63;4471090;32;33496;-87
2020/12/15 06:28:04;;;;;;;58.22;53.50;;;;;;;10.50;45.08;100879.00;4445389;32;32464;-88
2020/12/15 06:30:34;;;;;;;59.70;54.33;;;;;;;10.44;45.61;100871.22;4458218;32;33577;-87
2020/12/15 06:33:03;;;;;;;59.75;54.53;;;;;;;10.77;45.05;100871.69;4471327;32;33996;-87
2020/12/15 06:35:30;;;;;;;57.97;53.33;;;;;;;10.82;44.67;100858.56;4457273;32;34138;-84
2020/12/15 06:37:58;;;;;;;58.53;53.70;;;;;;;10.82;44.73;100869.00;4470988;32;33401;-84
2020/12/15 06:40:26;;;;;;;59.65;54.85;;;;;;;10.18;46.23;100867.19;4471368;32;33432;-87
2020/12/15 06:42:54;;;;;;;59.78;54.90;;;;;;;9.58;48.17;100866.91;4470896;32;33954;-87
2020/12/15 06:45:24;;;;;;;59.13;54.53;;;;;;;10.20;46.56;100865.41;4458433;32;34577;-87
2020/12/15 06:47:59;;;;;;;60.12;54.72;;;;;;;10.01;46.55;100867.34;4458043;32;32754;-86
2020/12/15 06:50:26;;;;;;;60.72;55.10;;;;;;;10.21;46.21;100850.66;4458546;32;33548;-85
2020/12/15 06:52:54;;;;;;;61.17;56.20;;;;;;;10.69;45.17;100848.31;4458911;32;33640;-86
2020/12/15 06:55:31;;;;;;;60.63;55.72;;;;;;;10.09;46.92;100849.06;4460536;32;34640;-85
2020/12/15 06:58:00;;;;;;;57.38;52.67;;;;;;;9.68;47.95;100845.97;4463919;32;32761;-84
2020/12/15 07:00:37;;;;;;;58.33;53.75;;;;;;;10.52;45.91;100839.88;4462174;32;34696;-87
2020/12/15 07:03:07;;;;;;;59.05;53.95;;;;;;;10.72;45.04;100843.97;4457986;32;33851;-88
2020/12/15 07:05:38;;;;;;;59.13;54.13;;;;;;;10.90;44.79;100850.66;4457667;32;33297;-87
2020/12/15 07:08:07;;;;;;;57.97;53.45;;;;;;;10.72;44.98;100854.37;4457435;32;32431;-87
2020/12/15 07:10:39;;;;;;;59.10;54.10;;;;;;;10.81;45.04;100860.31;4470412;32;33436;-84
2020/12/15 07:13:07;;;;;;;58.80;54.05;;;;;;;10.62;45.37;100853.63;4457038;32;33015;-84
2020/12/15 07:15:34;;;;;;;58.65;54.08;;;;;;;11.15;43.89;100864.19;4470124;32;33570;-86
2020/12/15 07:18:04;;;;;;;58.50;53.78;;;;;;;10.74;45.09;100860.44;4470131;32;33083;-84
2020/12/15 07:20:32;;;;;;;61.88;56.03;;;;;;;11.28;43.98;100863.09;4457120;32;33418;-85
2020/12/15 07:23:01;;;;;;;59.45;54.30;;;;;;;11.10;44.33;100863.38;4470342;32;33807;-85
2020/12/15 07:25:28;;;;;;;58.35;53.58;;;;;;;11.35;43.59;100859.53;4484356;32;33792;-85
2020/12/15 07:27:58;;;;;;;60.90;55.88;;;;;;;10.98;44.54;100867.91;4469923;32;33248;-84
2020/12/15 07:30:25;;;;;;;57.67;53.08;;;;;;;10.11;46.41;100878.53;4470048;32;34262;-84
2020/12/15 07:32:52;;;;;;;57.72;53.00;;;;;;;9.89;47.25;100871.81;4470068;32;34950;-83
2020/12/15 07:35:23;;;;;;;60.03;54.95;;;;;;;10.63;45.60;100877.06;4468117;32;35168;-85
2020/12/15 07:37:58;;;;;;;57.58;52.97;;;;;;;10.32;46.45;100876.56;4453940;32;33439;-84
2020/12/15 07:40:28;;;;;;;59.65;54.58;;;;;;;10.79;45.41;100874.25;4470592;32;33908;-84
2020/12/15 07:43:01;;;;;;;58.78;54.08;;;;;;;10.29;46.44;100879.19;4470316;32;33971;-84
2020/12/15 07:45:31;;;;;;;62.28;56.97;;;;;;;10.48;45.61;100878.13;4469572;32;32889;-84
2020/12/15 07:47:58;;;;;;;61.67;56.67;;;;;;;10.34;46.27;100880.87;4457098;32;32454;-85
2020/12/15 07:50:28;;;;;;;58.28;53.63;;;;;;;10.12;46.87;100882.00;4444269;32;33092;-84
2020/12/15 07:53:10;;;;;;;57.95;53.15;;;;;;;11.05;44.36;100881.72;4484480;32;34701;-84
2020/12/15 07:55:38;;;;;;;58.65;53.65;;;;;;;11.15;44.19;100878.06;4457244;32;33099;-84
2020/12/15 07:58:14;;;;;;;57.95;52.33;;;;;;;11.01;44.42;100883.50;4457084;32;32156;-85
2020/12/15 08:00:41;;;;;;;57.70;53.05;;;;;;;10.65;45.29;100880.53;4470023;32;33741;-84
2020/12/15 08:03:09;;;;;;;57.38;52.90;;;;;;;11.21;44.08;100882.34;4457895;32;35130;-83
2020/12/15 08:05:37;;;;;;;60.92;55.65;;;;;;;10.60;45.66;100882.31;4470023;32;34441;-84
2020/12/15 08:08:05;;;;;;;58.42;53.78;;;;;;;10.59;45.84;100891.03;4469564;32;34176;-84
2020/12/15 08:10:34;;;;;;;58.72;54.13;;;;;;;10.85;44.65;100889.84;4470033;32;34739;-84
2020/12/15 08:13:04;;;;;;;58.17;53.42;;;;;;;10.89;44.79;100896.72;4456887;32;32590;-85
2020/12/15 08:15:39;;;;;;;58.10;53.67;;;;;;;11.53;43.68;100904.47;4470351;32;35317;-85
2020/12/15 08:18:08;;;;;;;59.78;54.65;;;;;;;11.46;43.53;100902.81;4457319;32;33481;-84
2020/12/15 08:20:36;;;;;;;58.13;52.75;;;;;;;11.83;42.74;100903.09;4456527;32;33730;-85
2020/12/15 08:23:09;;;;;;;59.28;54.08;;;;;;;11.64;43.04;100912.13;4456580;32;34079;-85
2020/12/15 08:25:38;;;;;;;58.42;53.92;;;;;;;11.79;42.83;100917.09;4456895;32;33625;-85
2020/12/15 08:28:22;;;;;;;56.75;52.35;;;;;;;11.69;42.71;100915.50;4469616;32;34055;-85
2020/12/15 08:30:56;;;;;;;59.17;53.92;;;;;;;11.16;43.82;100923.28;4456852;32;32293;-85
2020/12/15 08:33:29;;;;;;;56.95;52.50;;;;;;;10.76;44.48;100913.41;4443899;32;33668;-85
2020/12/15 08:35:59;;;;;;;54.97;50.67;;;;;;;10.06;46.17;100914.16;4456588;32;32277;-84
2020/12/15 08:38:27;;;;;;;55.97;51.88;;;;;;;10.80;44.47;100917.72;4456757;32;33831;-85
2020/12/15 08:40:59;;;;;;;56.78;52.13;;;;;;;10.82;44.33;100915.94;4469466;32;33846;-85
2020/12/15 08:43:27;;;;;;;54.25;49.95;;;;;;;10.68;44.71;100919.56;4469425;32;33996;-85
2020/12/15 08:45:57;;;;;;;55.38;51.15;;;;;;;9.41;47.75;100924.25;4469636;32;34839;-84
2020/12/15 08:48:25;;;;;;;54.65;50.38;;;;;;;9.80;46.74;100923.09;4443502;32;32097;-84
2020/12/15 08:50:52;;;;;;;55.63;51.33;;;;;;;9.89;46.13;100927.31;4469620;32;33686;-83
2020/12/15 08:53:20;;;;;;;55.33;50.92;;;;;;;10.32;45.70;100926.06;4469528;32;33584;-83
2020/12/15 08:55:48;;;;;;;57.08;52.62;;;;;;;9.90;46.66;100923.84;4456610;32;33767;-83
2020/12/15 08:58:18;;;;;;;56.97;52.40;;;;;;;10.36;45.88;100914.75;4455432;32;32711;-83
2020/12/15 09:00:46;;;;;;;59.80;54.53;;;;;;;10.36;46.32;100923.41;4456455;32;33872;-83
2020/12/15 09:03:18;;;;;;;58.38;53.38;;;;;;;10.45;46.37;100924.19;4473053;32;34892;-84
2020/12/15 09:05:50;;;;;;;59.17;54.53;;;;;;;11.31;44.19;100925.66;4469705;32;33776;-83
2020/12/15 09:08:18;;;;;;;57.72;52.85;;;;;;;10.09;47.00;100939.31;4470067;32;32759;-83
2020/12/15 09:10:46;;;;;;;62.62;56.25;;;;;;;10.86;45.22;100922.81;4444188;32;32958;-83
2020/12/15 09:13:14;;;;;;;56.47;51.78;;;;;;;10.55;45.81;100936.25;4456637;32;33760;-83
2020/12/15 09:15:56;;;;;;;57.05;52.45;;;;;;;10.57;45.94;100931.00;4456281;32;33680;-83
2020/12/15 09:18:32;;;;;;;56.72;52.17;;;;;;;10.06;46.88;100937.59;4469476;32;34376;-83
2020/12/15 09:21:18;;;;;;;56.78;52.08;;;;;;;10.84;44.76;100935.88;4456203;32;34332;-83
2020/12/15 09:23:52;;;;;;;57.70;52.70;;;;;;;10.80;45.23;100931.59;4468799;32;33103;-84
2020/12/15 09:26:21;;;;;;;56.70;52.22;;;;;;;10.96;44.76;100934.84;4469070;32;33764;-84
2020/12/15 09:28:49;;;;;;;57.05;52.40;;;;;;;11.20;43.78;100928.44;4456323;32;33203;-84
2020/12/15 09:31:18;;;;;;;58.92;54.00;;;;;;;10.79;44.94;100929.00;4468711;32;33863;-84
2020/12/15 09:33:46;;;;;;;57.92;53.13;;;;;;;10.89;45.05;100922.81;4468580;32;33586;-83
2020/12/15 09:36:15;;;;;;;58.63;53.78;;;;;;;11.58;43.58;100914.81;4468555;32;33770;-83
2020/12/15 09:38:42;;;;;;;58.10;53.55;;;;;;;11.12;45.08;100917.25;4456065;32;33301;-83
2020/12/15 09:41:09;;;;;;;57.30;52.72;;;;;;;11.51;44.09;100914.06;4469248;32;33845;-82
2020/12/15 09:43:36;;;;;;;58.42;53.55;;;;;;;11.05;45.35;100923.44;4455740;32;33633;-83
2020/12/15 09:46:04;;;;;;;58.67;53.85;;;;;;;11.60;44.02;100924.34;4455573;32;33798;-83
2020/12/15 09:48:31;;;;;;;57.75;52.62;;;;;;;11.40;44.29;100923.81;4468541;32;34926;-83
2020/12/15 09:51:00;;;;;;;58.65;53.40;;;;;;;11.74;43.81;100923.25;4456040;32;33396;-83
2020/12/15 09:53:29;;;;;;;57.22;52.08;;;;;;;11.06;45.52;100934.72;4469113;32;33848;-83
2020/12/15 09:55:57;;;;;;;61.85;56.45;;;;;;;10.81;46.12;100924.63;4468713;32;34038;-85
2020/12/15 09:58:26;;;;;;;59.20;54.20;;;;;;;10.45;47.14;100929.41;4468578;32;33933;-84
2020/12/15 10:01:13;;;;;;;59.47;54.38;;;;;;;11.14;45.56;100925.94;4458143;32;32687;-84
2020/12/15 10:03:41;;;;;;;61.63;55.78;;;;;;;11.01;45.22;100933.06;4455920;32;33711;-84
2020/12/15 10:06:08;;;;;;;57.62;52.58;;;;;;;10.87;45.24;100929.75;4482813;32;33913;-84
2020/12/15 10:08:44;;;;;;;57.53;52.92;;;;;;;11.36;44.39;100923.00;4457339;32;32963;-84
2020/12/15 10:11:15;;;;;;;56.95;52.05;;;;;;;10.83;45.58;100926.31;4471030;32;33678;-83
2020/12/15 10:13:43;;;;;;;56.70;52.17;;;;;;;10.72;46.19;100929.97;4458265;32;32630;-83
2020/12/15 10:16:10;;;;;;;58.83;53.63;;;;;;;10.49;46.58;100921.56;4471099;32;33876;-84
2020/12/15 10:18:38;;;;;;;58.85;53.22;;;;;;;11.30;44.54;100921.34;4485493;32;33285;-84
2020/12/15 10:21:05;;;;;;;56.42;52.00;;;;;;;11.10;44.52;100921.66;4458357;32;33633;-84
2020/12/15 10:23:34;;;;;;;58.20;53.28;;;;;;;10.43;46.03;100919.00;4484965;32;34890;-84
2020/12/15 10:26:02;;;;;;;57.97;53.25;;;;;;;10.33;46.59;100913.03;4457454;32;34498;-83
2020/12/15 10:28:30;;;;;;;55.28;50.92;;;;;;;10.51;45.90;100918.94;4485080;32;34456;-84
2020/12/15 10:30:59;;;;;;;56.42;51.83;;;;;;;10.65;45.51;100914.41;4471636;32;34690;-82
2020/12/15 10:33:26;;;;;;;55.47;51.13;;;;;;;10.72;45.30;100917.81;4457895;32;33493;-84
2020/12/15 10:36:04;;;;;;;57.53;52.08;;;;;;;11.77;42.80;100912.78;4458138;32;33685;-83
2020/12/15 10:38:33;;;;;;;56.22;51.92;;;;;;;10.96;44.38;100911.37;4444874;32;32787;-83
2020/12/15 10:41:00;;;;;;;57.88;52.85;;;;;;;11.34;43.50;100920.41;4470435;32;34642;-84
2020/12/15 10:43:28;;;;;;;55.95;51.47;;;;;;;11.07;44.45;100915.59;4457389;32;33537;-84
2020/12/15 10:45:55;;;;;;;56.85;52.03;;;;;;;10.59;45.40;100913.62;4484952;32;34628;-84
2020/12/15 10:48:23;;;;;;;57.13;52.50;;;;;;;10.50;45.49;100912.84;4457695;32;33375;-83
2020/12/15 10:50:50;;;;;;;55.95;51.58;;;;;;;11.01;44.57;100906.12;4457798;32;33923;-84
2020/12/15 10:53:18;;;;;;;58.20;53.58;;;;;;;11.05;44.45;100909.53;4470771;32;34472;-82
2020/12/15 10:55:50;;;;;;;55.38;51.17;;;;;;;11.07;44.51;100910.38;4472732;32;33452;-83
2020/12/15 10:58:18;;;;;;;57.22;52.38;;;;;;;11.25;43.89;100898.81;4471117;32;33691;-83
2020/12/15 11:00:45;;;;;;;58.55;53.78;;;;;;;11.41;43.61;100909.84;4457250;32;32868;-83
2020/12/15 11:03:12;;;;;;;56.20;51.97;;;;;;;10.86;45.15;100905.44;4470657;32;34305;-82
2020/12/15 11:05:40;;;;;;;55.65;51.13;;;;;;;10.90;45.18;100902.78;4470647;32;33476;-83
2020/12/15 11:08:07;;;;;;;56.60;51.85;;;;;;;11.00;45.01;100904.41;4485076;32;33120;-82
2020/12/15 11:10:35;;;;;;;56.83;52.30;;;;;;;10.79;45.68;100902.94;4485220;32;33942;-84
2020/12/15 11:13:03;;;;;;;58.50;53.78;;;;;;;11.02;45.11;100898.28;4470517;32;33458;-85
2020/12/15 11:15:30;;;;;;;63.25;57.65;;;;;;;11.32;44.44;100895.22;4484323;32;34503;-83
2020/12/15 11:17:59;;;;;;;60.92;55.95;;;;;;;10.85;45.65;100895.06;4457626;32;34562;-82
2020/12/15 11:20:28;;;;;;;58.85;54.15;;;;;;;10.85;45.46;100890.69;4456901;32;34402;-84